首页
METAR-TAF:

METAR-TAF

机场 :

邁亞密國際機場

迈阿密, 佛罗里达州, 美国

纬度: 25-47-26N, 经度: 080-18-59W, 海拔: 3米

当前天气观测

该预报发布于52分钟前的15:53 UTC
风速3节,风向多变
温度 33°C
湿度 53%
气压 1016 hPa
能見度: 16.1公里
散云层高于3800英尺
多云层高于5000英尺
多云层高于25000英尺

METAR: KMIA 021553Z VRB03KT 10SM SCT038 BKN050 BKN250 33/22 A3001 RMK AO2 SLP161 T03330222 $

时间: 12:45 (16:45 UTC)

预报

该预报发布于1小时和47分钟前的14:58 UTC
预报有效从02日的 15点(UTC)到 03日的 18点(UTC)
风速3节,风向多变
能見度: 10公里
散云层高于3000英尺
从 02日的 1700点(UTC)
风速10节,风向南转南东
能見度: 10公里
散云层高于2500英尺
散云层高于6000英尺
从 02日的 2100点(UTC)
风速12节,风向
能見度: 10公里
散云层高于2500英尺, 积雨云.
多云层高于5000英尺
附近有雷暴
从 03日的 0100点(UTC)
风速4节,风向多变
能見度: 10公里
散云层高于4000英尺
散云层高于25000英尺
从 03日的 1700点(UTC)
风速8节,风向南转西南
能見度: 10公里
散云层高于4000英尺
散云层高于25000英尺

TAF: KMIA 021458Z 0215/0318 VRB03KT P6SM SCT030 FM021700 16010KT P6SM SCT025 SCT060 FM022100 19012KT P6SM VCTS SCT025CB BKN050 FM030100 VRB04KT P6SM SCT040 SCT250 FM031700 20008KT P6SM SCT040 SCT250

超过4000个机场的气象观测和天气预报(METAR&TAF报告)。

可查询的气象台以黄色和红色小点在地图上表示。

将鼠标移到小点上方,可查看气象台名称。

然后点击查看天气观测和预报。

如需切换地图:点击带黑十字的绿色按钮放大地图;点击带横线的绿色按钮缩小地图;或者点击绿色箭头查看邻近地区的地图。


METAR-TAF: